Time;durP1;ratioP1;P1;durP2;ratioP2;P2;SDS_P1;SDS_P2;PMS_P1;PMS_P2;Temp;Humidity;BMP_temperature;BMP_pressure;BME280_temperature;BME280_humidity;BME280_pressure;Samples;Min_cycle;Max_cycle;Signal;HPM_P1;HPM_P2
2023/01/24 00:01:00;;;;;;;15.57;9.63;;;2.80;1.00;;;;;;5040102;28;20610;-66
2023/01/24 00:03:27;;;;;;;14.23;9.50;;;2.80;1.00;;;;;;5056382;28;20218;-66
2023/01/24 00:05:54;;;;;;;13.70;9.60;;;2.80;1.00;;;;;;5041410;28;20199;-66
2023/01/24 00:08:24;;;;;;;14.23;9.87;;;2.70;1.00;;;;;;5036494;28;20223;-66
2023/01/24 00:11:02;;;;;;;13.03;9.70;;;2.80;1.00;;;;;;5051433;28;20678;-67
2023/01/24 00:13:29;;;;;;;13.73;9.27;;;2.80;1.00;;;;;;5005234;28;20199;-67
2023/01/24 00:16:09;;;;;;;14.27;10.00;;;2.80;1.00;;;;;;5055210;28;20474;-66
2023/01/24 00:18:36;;;;;;;12.53;9.13;;;2.80;1.00;;;;;;5053597;28;20855;-66
2023/01/24 00:21:08;;;;;;;13.30;9.83;;;2.80;1.00;;;;;;5058649;28;20210;-66
2023/01/24 00:23:40;;;;;;;14.07;9.50;;;2.80;1.00;;;;;;5053890;28;20192;-66
2023/01/24 00:26:07;;;;;;;14.30;9.70;;;2.80;1.00;;;;;;5024118;28;20565;-66
2023/01/24 00:28:35;;;;;;;12.60;9.57;;;2.80;1.00;;;;;;5022918;28;20203;-69
2023/01/24 00:31:03;;;;;;;14.37;9.57;;;2.80;1.00;;;;;;5040921;28;20673;-65
2023/01/24 00:33:32;;;;;;;14.53;9.60;;;2.80;1.00;;;;;;5022450;28;20202;-66
2023/01/24 00:35:59;;;;;;;15.10;10.43;;;2.80;1.00;;;;;;5021888;28;20270;-68
2023/01/24 00:38:29;;;;;;;17.40;11.07;;;2.80;1.00;;;;;;5037033;28;20229;-66
2023/01/24 00:40:57;;;;;;;12.77;9.60;;;2.80;1.00;;;;;;5036246;28;20652;-65
2023/01/24 00:43:26;;;;;;;15.00;9.80;;;2.80;1.00;;;;;;5057731;28;20195;-66
2023/01/24 00:45:54;;;;;;;15.07;10.70;;;2.80;1.00;;;;;;5040435;28;20194;-66
2023/01/24 00:48:22;;;;;;;15.30;10.53;;;2.80;1.00;;;;;;5057399;28;20227;-67
2023/01/24 00:50:49;;;;;;;124.40;58.00;;;2.80;1.00;;;;;;5039978;28;20207;-67
2023/01/24 00:53:16;;;;;;;17.47;11.70;;;2.80;1.00;;;;;;5058972;28;20759;-67
2023/01/24 00:55:45;;;;;;;14.20;10.57;;;2.80;1.00;;;;;;5025635;28;20265;-66
2023/01/24 00:58:12;;;;;;;17.53;12.13;;;2.70;1.00;;;;;;5060602;28;20631;-66
2023/01/24 01:00:39;;;;;;;13.70;10.30;;;2.70;1.00;;;;;;5062145;28;20302;-66
2023/01/24 01:03:11;;;;;;;14.80;10.23;;;2.80;1.00;;;;;;5043472;28;20594;-65
2023/01/24 01:05:38;;;;;;;13.57;9.70;;;2.80;1.00;;;;;;5043573;28;20294;-65
2023/01/24 01:08:05;;;;;;;13.17;9.07;;;2.70;1.00;;;;;;5060320;28;20284;-63
2023/01/24 01:10:32;;;;;;;12.87;9.50;;;2.80;1.00;;;;;;5043342;28;20211;-64
2023/01/24 01:12:59;;;;;;;14.30;10.20;;;2.80;1.00;;;;;;5042271;28;20219;-64
2023/01/24 01:15:26;;;;;;;12.40;9.03;;;2.80;1.00;;;;;;5060434;28;20207;-64
2023/01/24 01:17:53;;;;;;;13.40;8.77;;;2.80;1.00;;;;;;5040322;28;20217;-64
2023/01/24 01:20:20;;;;;;;11.47;9.13;;;2.80;1.00;;;;;;5061236;28;20305;-64
2023/01/24 01:22:47;;;;;;;14.30;9.73;;;2.80;1.00;;;;;;5060875;28;20199;-64
2023/01/24 01:25:14;;;;;;;13.47;8.90;;;2.80;1.00;;;;;;5042307;28;20289;-64
2023/01/24 01:27:41;;;;;;;13.30;9.53;;;2.80;1.00;;;;;;5040806;28;20246;-66
2023/01/24 01:30:09;;;;;;;11.97;8.53;;;2.80;1.00;;;;;;5041787;28;20284;-67
2023/01/24 01:32:36;;;;;;;12.83;8.77;;;2.80;1.00;;;;;;5057867;28;20687;-64
2023/01/24 01:35:04;;;;;;;11.33;8.67;;;2.80;1.00;;;;;;5051166;28;20211;-65
2023/01/24 01:37:31;;;;;;;10.57;8.50;;;2.80;1.00;;;;;;5026566;28;20210;-63
2023/01/24 01:39:58;;;;;;;12.23;8.97;;;2.80;1.00;;;;;;5017062;28;20218;-64
2023/01/24 01:42:25;;;;;;;10.77;8.60;;;2.80;1.00;;;;;;5055617;28;20191;-64
2023/01/24 01:44:53;;;;;;;12.07;8.53;;;2.80;1.00;;;;;;5058888;28;20199;-64
2023/01/24 01:47:35;;;;;;;11.90;8.70;;;2.80;1.00;;;;;;5055601;28;20655;-65
2023/01/24 01:50:13;;;;;;;12.23;8.80;;;2.80;1.00;;;;;;5024075;28;20208;-64
2023/01/24 01:52:42;;;;;;;12.00;8.53;;;2.80;1.00;;;;;;5039603;28;20230;-65
2023/01/24 01:55:16;;;;;;;11.90;8.83;;;2.80;1.00;;;;;;5036617;28;20203;-64
2023/01/24 01:57:44;;;;;;;13.93;8.67;;;2.70;1.00;;;;;;5036805;28;20207;-64
2023/01/24 02:00:14;;;;;;;13.87;8.73;;;2.80;1.00;;;;;;5059131;28;20752;-64
2023/01/24 02:02:46;;;;;;;12.17;8.70;;;2.80;1.00;;;;;;5006316;28;20281;-66
2023/01/24 02:05:17;;;;;;;10.30;7.53;;;2.80;1.00;;;;;;5064665;22;20243;-59
2023/01/24 02:07:56;;;;;;;9.87;8.17;;;2.80;1.00;;;;;;5053446;28;20217;-60
2023/01/24 02:10:24;;;;;;;11.70;8.97;;;2.80;1.00;;;;;;5053709;28;20491;-60
2023/01/24 02:12:54;;;;;;;12.03;7.90;;;2.80;1.00;;;;;;5051118;28;20626;-57
2023/01/24 02:18:10;;;;;;;12.07;8.90;;;2.80;1.00;;;;;;5054012;28;20199;-58
2023/01/24 02:20:43;;;;;;;10.17;7.50;;;2.80;1.00;;;;;;5056656;28;20226;-60
2023/01/24 02:23:28;;;;;;;9.40;7.00;;;2.80;1.00;;;;;;5054628;28;20191;-58
2023/01/24 02:26:05;;;;;;;9.90;7.43;;;2.80;1.00;;;;;;5052192;28;20276;-59
2023/01/24 02:28:33;;;;;;;10.17;7.20;;;2.80;1.00;;;;;;5054852;28;20183;-57
2023/01/24 02:31:01;;;;;;;9.77;7.30;;;2.80;1.00;;;;;;5054281;28;20305;-58
2023/01/24 02:33:28;;;;;;;11.43;7.50;;;2.80;1.00;;;;;;5053172;28;20226;-60
2023/01/24 02:36:16;;;;;;;10.57;8.03;;;2.80;1.00;;;;;;5054683;28;20226;-62
2023/01/24 02:38:50;;;;;;;10.27;7.87;;;2.70;1.00;;;;;;5029153;28;20205;-58
2023/01/24 02:41:19;;;;;;;10.60;7.87;;;2.70;1.00;;;;;;5051337;28;20722;-58
2023/01/24 02:43:49;;;;;;;9.83;7.83;;;2.70;1.00;;;;;;5052463;28;20221;-61
2023/01/24 02:46:16;;;;;;;11.13;8.80;;;2.70;1.00;;;;;;5051587;28;20951;-61
2023/01/24 02:48:43;;;;;;;10.57;8.10;;;2.70;1.00;;;;;;5054563;28;20235;-60
2023/01/24 02:53:56;;;;;;;12.17;8.90;;;2.60;1.00;;;;;;5038637;28;20227;-59
2023/01/24 02:59:09;;;;;;;11.60;8.37;;;2.60;1.00;;;;;;5056788;28;20590;-59
2023/01/24 03:01:36;;;;;;;10.97;8.23;;;2.70;1.00;;;;;;5053965;28;20208;-59
2023/01/24 03:04:03;;;;;;;10.23;8.10;;;2.70;1.00;;;;;;5053397;28;20330;-59
2023/01/24 03:06:32;;;;;;;9.77;7.17;;;2.60;1.00;;;;;;5052879;28;20243;-60
2023/01/24 03:08:59;;;;;;;9.73;7.57;;;2.60;1.00;;;;;;5053799;28;21087;-57
2023/01/24 03:11:34;;;;;;;10.50;7.50;;;2.70;1.00;;;;;;5052571;28;20202;-59
2023/01/24 03:36:13;;;;;;;10.63;7.87;;;2.70;1.00;;;;;;5053943;28;20587;-65
2023/01/24 03:41:28;;;;;;;10.97;8.30;;;2.70;1.00;;;;;;5051892;28;20211;-66
2023/01/24 03:43:55;;;;;;;10.70;8.50;;;2.70;1.00;;;;;;5055623;28;20252;-65
2023/01/24 03:46:22;;;;;;;10.83;8.30;;;2.70;1.00;;;;;;5051717;28;20222;-66
2023/01/24 03:48:50;;;;;;;10.53;8.10;;;2.70;1.00;;;;;;5049272;28;20219;-66
2023/01/24 03:54:07;;;;;;;10.67;7.57;;;2.70;1.00;;;;;;5053328;28;20207;-65
2023/01/24 03:57:02;;;;;;;10.60;8.03;;;2.70;1.00;;;;;;5037779;28;20509;-66
2023/01/24 03:59:29;;;;;;;9.43;8.00;;;2.60;1.00;;;;;;5038014;28;20309;-58
2023/01/24 04:01:56;;;;;;;10.50;8.07;;;2.70;1.00;;;;;;5054187;28;20196;-59
2023/01/24 04:05:12;;;;;;;10.93;7.70;;;2.60;1.00;;;;;;5054232;28;20494;-58
2023/01/24 04:07:19;;;;;;;10.43;7.87;;;2.60;1.00;;;;;;5052985;28;20660;-59
2023/01/24 04:10:05;;;;;;;9.67;6.93;;;2.60;1.00;;;;;;5052136;28;20241;-58
2023/01/24 04:12:42;;;;;;;9.83;7.20;;;2.60;1.00;;;;;;5054132;28;20252;-59
2023/01/24 04:15:17;;;;;;;10.80;7.70;;;2.70;1.00;;;;;;5037261;28;20211;-60
2023/01/24 04:17:49;;;;;;;9.50;7.77;;;2.60;1.00;;;;;;5052995;28;20693;-58
2023/01/24 04:20:17;;;;;;;9.17;7.13;;;2.60;1.00;;;;;;5070138;28;20269;-60
2023/01/24 04:22:44;;;;;;;8.43;6.67;;;2.60;1.00;;;;;;5053468;28;20207;-58
2023/01/24 04:25:11;;;;;;;7.60;6.37;;;2.60;1.00;;;;;;5052571;28;20263;-59
2023/01/24 04:27:41;;;;;;;9.13;7.23;;;2.60;1.00;;;;;;5057282;28;20206;-59
2023/01/24 04:30:13;;;;;;;9.23;7.07;;;2.60;1.00;;;;;;5032538;28;20735;-59
2023/01/24 04:32:43;;;;;;;9.57;7.40;;;2.60;1.00;;;;;;5056372;28;20320;-59
2023/01/24 04:35:25;;;;;;;9.37;6.93;;;2.70;1.00;;;;;;5040732;28;20701;-59
2023/01/24 04:38:02;;;;;;;7.83;6.13;;;2.60;1.00;;;;;;5057800;28;20641;-66
2023/01/24 04:40:38;;;;;;;9.23;7.10;;;2.60;1.00;;;;;;5072264;28;20202;-66
2023/01/24 04:43:06;;;;;;;11.47;7.40;;;2.70;1.00;;;;;;5057190;28;20214;-65
2023/01/24 04:45:33;;;;;;;10.33;7.33;;;2.60;1.00;;;;;;5057382;28;20712;-65
2023/01/24 04:48:01;;;;;;;9.33;6.77;;;2.60;1.00;;;;;;5042198;28;20202;-65
2023/01/24 04:50:28;;;;;;;9.07;6.07;;;2.60;1.00;;;;;;5054526;28;20209;-63
2023/01/24 04:52:55;;;;;;;11.07;6.60;;;2.60;1.00;;;;;;5058261;28;20195;-61
2023/01/24 04:55:23;;;;;;;8.57;6.63;;;2.60;1.00;;;;;;5055136;28;20191;-64
2023/01/24 04:57:51;;;;;;;6.87;5.70;;;2.60;1.00;;;;;;5031709;28;20208;-64
2023/01/24 05:00:18;;;;;;;8.83;6.00;;;2.60;1.00;;;;;;5053861;28;20789;-65
2023/01/24 05:02:45;;;;;;;8.73;6.13;;;2.60;1.00;;;;;;5049403;28;20298;-65
2023/01/24 05:05:14;;;;;;;7.53;5.80;;;2.60;1.00;;;;;;5056570;28;20234;-66
2023/01/24 05:07:41;;;;;;;7.33;6.07;;;2.50;1.00;;;;;;5056490;28;20194;-59
2023/01/24 05:10:13;;;;;;;9.70;6.27;;;2.50;1.00;;;;;;5053632;28;20213;-59
2023/01/24 05:12:40;;;;;;;9.23;6.73;;;2.60;1.00;;;;;;5056624;28;20244;-60
2023/01/24 05:15:14;;;;;;;8.27;6.27;;;2.50;1.00;;;;;;5057803;28;20207;-59
2023/01/24 05:17:44;;;;;;;7.13;5.93;;;2.60;1.00;;;;;;5038591;28;20265;-59
2023/01/24 05:20:16;;;;;;;7.70;5.90;;;2.60;1.00;;;;;;5066660;28;20392;-58
2023/01/24 05:22:46;;;;;;;7.87;6.00;;;2.50;1.00;;;;;;5055051;28;20282;-64
2023/01/24 05:25:15;;;;;;;8.13;5.80;;;2.50;1.00;;;;;;5056861;28;20206;-64
2023/01/24 05:27:43;;;;;;;8.47;6.10;;;2.50;1.00;;;;;;5069545;28;20618;-64
2023/01/24 05:30:12;;;;;;;8.43;6.33;;;2.50;1.00;;;;;;5057274;28;20549;-65
2023/01/24 05:32:39;;;;;;;6.20;5.60;;;2.50;1.00;;;;;;5039529;28;20624;-64
2023/01/24 05:35:07;;;;;;;6.27;5.47;;;2.60;1.00;;;;;;5040414;28;20604;-65
2023/01/24 05:37:37;;;;;;;7.60;5.47;;;2.50;1.00;;;;;;5053969;28;20203;-64
2023/01/24 05:40:06;;;;;;;8.03;5.97;;;2.60;1.00;;;;;;5053694;28;20205;-66
2023/01/24 05:42:33;;;;;;;7.40;5.97;;;2.60;1.00;;;;;;5055193;28;20221;-66
2023/01/24 05:45:00;;;;;;;8.50;6.53;;;2.60;1.00;;;;;;5056921;28;20225;-64
2023/01/24 05:47:27;;;;;;;7.43;5.87;;;2.50;1.00;;;;;;5054994;28;20561;-66
2023/01/24 05:49:54;;;;;;;8.20;5.53;;;2.50;1.00;;;;;;5038861;28;20225;-66
2023/01/24 05:52:21;;;;;;;6.73;5.27;;;2.50;1.00;;;;;;5056522;28;20256;-68
2023/01/24 05:54:51;;;;;;;8.70;5.77;;;2.50;1.00;;;;;;5055778;28;20206;-67
2023/01/24 05:57:30;;;;;;;6.67;5.53;;;2.50;1.00;;;;;;5054692;28;20214;-65
2023/01/24 06:00:26;;;;;;;7.77;5.27;;;2.60;1.00;;;;;;5046018;28;20229;-65
2023/01/24 06:03:11;;;;;;;11.47;7.17;;;2.50;1.00;;;;;;5056133;28;20214;-61
2023/01/24 06:05:39;;;;;;;8.33;6.27;;;2.50;1.00;;;;;;5057553;28;20572;-61
2023/01/24 06:08:06;;;;;;;7.97;6.67;;;2.50;1.00;;;;;;5056048;28;20192;-66
2023/01/24 06:10:32;;;;;;;7.60;5.83;;;2.50;1.00;;;;;;5055472;28;20209;-67
2023/01/24 06:13:05;;;;;;;7.87;5.73;;;2.40;1.00;;;;;;5054568;28;20213;-66
2023/01/24 06:15:32;;;;;;;8.07;6.10;;;2.50;1.00;;;;;;5038317;28;20230;-68
2023/01/24 06:18:00;;;;;;;9.10;6.70;;;2.50;1.00;;;;;;5054257;28;20534;-68
2023/01/24 06:20:28;;;;;;;12.10;8.80;;;2.50;1.00;;;;;;5038323;28;20309;-67
2023/01/24 06:23:06;;;;;;;8.43;6.63;;;2.50;1.00;;;;;;5055993;28;20199;-65
2023/01/24 06:25:39;;;;;;;10.57;7.77;;;2.50;1.00;;;;;;5053403;28;20200;-65
2023/01/24 06:28:08;;;;;;;9.57;7.00;;;2.50;1.00;;;;;;5056377;28;20278;-60
2023/01/24 06:30:39;;;;;;;10.57;7.90;;;2.40;1.00;;;;;;5056077;28;20203;-59
2023/01/24 06:33:38;;;;;;;10.57;7.10;;;2.50;1.00;;;;;;5038285;28;20203;-59
2023/01/24 06:36:38;;;;;;;8.00;6.50;;;2.40;1.00;;;;;;5053408;28;20224;-59
2023/01/24 06:39:12;;;;;;;8.13;6.17;;;2.50;1.00;;;;;;5056367;28;20227;-60
2023/01/24 06:41:39;;;;;;;9.43;6.70;;;2.40;1.00;;;;;;5055096;28;20633;-59
2023/01/24 06:44:09;;;;;;;10.43;7.37;;;2.40;1.00;;;;;;5055194;28;20428;-59
2023/01/24 06:46:36;;;;;;;8.80;7.03;;;2.40;1.00;;;;;;5056193;28;20188;-61
2023/01/24 06:49:03;;;;;;;10.17;6.50;;;2.40;1.00;;;;;;5036683;28;20199;-62
2023/01/24 06:51:30;;;;;;;12.00;7.77;;;2.40;1.00;;;;;;5056101;28;20203;-59
2023/01/24 06:53:57;;;;;;;9.47;6.87;;;2.40;1.00;;;;;;5038781;28;20738;-62
2023/01/24 06:56:24;;;;;;;9.80;7.53;;;2.40;1.00;;;;;;5054102;28;20198;-59
2023/01/24 06:58:51;;;;;;;8.73;6.67;;;2.40;1.00;;;;;;5052800;28;20514;-59
2023/01/24 07:01:18;;;;;;;11.50;6.93;;;2.40;1.00;;;;;;5054010;28;20559;-58
2023/01/24 07:03:45;;;;;;;9.50;7.27;;;2.40;1.00;;;;;;5055584;28;20235;-58
2023/01/24 07:06:13;;;;;;;9.47;7.17;;;2.40;1.00;;;;;;5053071;28;21000;-59
2023/01/24 07:08:39;;;;;;;8.50;7.20;;;2.40;1.00;;;;;;5052839;28;20194;-60
2023/01/24 07:11:06;;;;;;;9.43;6.83;;;2.40;1.00;;;;;;5050160;28;21014;-58
2023/01/24 07:13:33;;;;;;;11.13;7.47;;;2.40;1.00;;;;;;5054655;28;20218;-65
2023/01/24 07:16:04;;;;;;;9.57;6.73;;;2.40;1.00;;;;;;5050000;28;20187;-65
2023/01/24 07:18:31;;;;;;;13.23;8.53;;;2.40;1.00;;;;;;5052862;28;20203;-65
2023/01/24 07:20:58;;;;;;;8.87;7.23;;;2.30;1.00;;;;;;5052897;28;20212;-59
2023/01/24 07:23:31;;;;;;;9.73;7.87;;;2.40;1.00;;;;;;5053249;28;20363;-64
2023/01/24 07:25:58;;;;;;;9.20;7.40;;;2.40;1.00;;;;;;5050545;28;20735;-65
2023/01/24 07:28:25;;;;;;;8.00;6.57;;;2.40;1.00;;;;;;5048414;28;20710;-59
2023/01/24 07:30:53;;;;;;;8.30;6.67;;;2.40;1.00;;;;;;5051868;28;20190;-59
2023/01/24 07:33:20;;;;;;;7.67;5.87;;;2.40;1.00;;;;;;5053922;28;20369;-59
2023/01/24 07:35:50;;;;;;;9.93;6.93;;;2.40;1.00;;;;;;5053111;28;20831;-58
2023/01/24 07:38:18;;;;;;;10.73;7.60;;;2.40;1.00;;;;;;5050726;28;20280;-60
2023/01/24 07:40:45;;;;;;;11.63;8.03;;;2.40;1.00;;;;;;5053671;28;20269;-60
2023/01/24 07:43:13;;;;;;;10.37;7.77;;;2.40;1.00;;;;;;5053320;28;20281;-58
2023/01/24 07:45:40;;;;;;;11.33;7.67;;;2.40;1.00;;;;;;5052105;28;20214;-60
2023/01/24 07:48:07;;;;;;;9.67;6.80;;;2.40;1.00;;;;;;5054871;28;20455;-61
2023/01/24 07:50:34;;;;;;;10.23;6.83;;;2.40;1.00;;;;;;5053823;28;20210;-59
2023/01/24 07:53:02;;;;;;;9.33;7.57;;;2.40;1.00;;;;;;5053544;28;20238;-57
2023/01/24 07:55:29;;;;;;;8.43;6.57;;;2.50;1.00;;;;;;5052957;28;20299;-58
2023/01/24 07:58:01;;;;;;;10.43;7.57;;;2.40;1.00;;;;;;5052188;28;20735;-57
2023/01/24 08:00:29;;;;;;;9.23;6.97;;;2.40;1.00;;;;;;5054008;28;20604;-56
2023/01/24 08:02:56;;;;;;;10.37;7.90;;;2.40;1.00;;;;;;5055642;28;20199;-61
2023/01/24 08:05:23;;;;;;;10.60;8.00;;;2.40;1.00;;;;;;5053968;28;20243;-57
2023/01/24 08:07:50;;;;;;;9.33;6.87;;;2.40;1.00;;;;;;5053553;28;20221;-60
2023/01/24 08:10:17;;;;;;;10.93;7.70;;;2.40;1.00;;;;;;5048602;28;20188;-60
2023/01/24 08:12:44;;;;;;;12.53;8.33;;;2.40;1.00;;;;;;5053364;28;20187;-61
2023/01/24 08:15:11;;;;;;;12.83;8.33;;;2.40;1.00;;;;;;5054592;28;20264;-60
2023/01/24 08:17:39;;;;;;;12.00;8.20;;;2.50;1.00;;;;;;5053825;28;20721;-60
2023/01/24 08:20:07;;;;;;;10.37;8.17;;;2.50;1.00;;;;;;5052756;28;20214;-57
2023/01/24 08:22:34;;;;;;;10.83;8.10;;;2.40;1.00;;;;;;5047808;28;20220;-58
2023/01/24 08:25:11;;;;;;;9.00;7.03;;;2.50;1.00;;;;;;5048739;28;20187;-58
2023/01/24 08:27:42;;;;;;;9.40;6.40;;;2.50;1.00;;;;;;5053307;28;20835;-59
2023/01/24 08:30:11;;;;;;;9.73;6.83;;;2.50;1.00;;;;;;5052408;28;20277;-68
2023/01/24 08:32:38;;;;;;;9.43;6.73;;;2.50;1.00;;;;;;5053212;28;20200;-67
2023/01/24 08:35:05;;;;;;;9.30;6.83;;;2.50;1.00;;;;;;5053893;28;20203;-67
2023/01/24 08:37:32;;;;;;;8.57;6.17;;;2.50;1.00;;;;;;5053102;28;20206;-67
2023/01/24 08:39:59;;;;;;;9.17;7.20;;;2.60;1.00;;;;;;5051734;28;20302;-64
2023/01/24 08:42:26;;;;;;;8.00;6.27;;;2.50;1.00;;;;;;5053115;28;20212;-63
2023/01/24 08:44:53;;;;;;;7.60;5.67;;;2.60;1.00;;;;;;5054607;28;20199;-64
2023/01/24 08:47:20;;;;;;;7.73;6.43;;;2.60;1.00;;;;;;5051209;28;20943;-66
2023/01/24 08:49:47;;;;;;;7.67;6.60;;;2.50;1.00;;;;;;5048246;28;20739;-66
2023/01/24 08:52:14;;;;;;;7.30;6.57;;;2.50;1.00;;;;;;5050021;28;20199;-65
2023/01/24 08:54:41;;;;;;;8.27;6.37;;;2.60;1.00;;;;;;5053440;28;20256;-67
2023/01/24 08:57:10;;;;;;;9.20;7.27;;;2.60;1.00;;;;;;5048030;28;20248;-58
2023/01/24 08:59:37;;;;;;;8.47;7.03;;;2.70;1.00;;;;;;5042945;28;21674;-57
2023/01/24 09:02:04;;;;;;;6.70;5.50;;;2.80;1.00;;;;;;5049151;28;20216;-59
2023/01/24 09:04:31;;;;;;;7.17;6.17;;;2.80;1.00;;;;;;5038872;28;20266;-57
2023/01/24 09:06:58;;;;;;;7.47;6.43;;;2.70;1.00;;;;;;5048606;28;20719;-57
2023/01/24 09:09:25;;;;;;;7.73;6.33;;;2.70;1.00;;;;;;5048434;28;20207;-62
2023/01/24 09:11:53;;;;;;;11.00;7.30;;;2.70;1.00;;;;;;5051336;28;20211;-66
2023/01/24 09:14:20;;;;;;;8.03;6.27;;;2.70;1.00;;;;;;5055375;28;20214;-64
2023/01/24 09:16:47;;;;;;;8.93;6.50;;;2.60;1.00;;;;;;5051446;28;20227;-67
2023/01/24 09:19:14;;;;;;;8.30;6.60;;;2.60;1.00;;;;;;5052452;28;20352;-65
2023/01/24 09:21:41;;;;;;;8.40;5.80;;;2.70;1.00;;;;;;5054013;28;20230;-68
2023/01/24 09:24:08;;;;;;;7.27;6.10;;;2.70;1.00;;;;;;5054257;28;20273;-65
2023/01/24 09:26:35;;;;;;;8.40;6.30;;;2.70;1.00;;;;;;5052333;28;20643;-66
2023/01/24 09:29:02;;;;;;;7.20;5.47;;;2.70;1.00;;;;;;5051272;28;20599;-68
2023/01/24 09:31:29;;;;;;;6.60;5.60;;;2.70;1.00;;;;;;5054060;28;20559;-64
2023/01/24 09:33:56;;;;;;;6.23;5.63;;;2.80;1.00;;;;;;5050845;28;20230;-65
2023/01/24 09:36:26;;;;;;;7.00;5.73;;;2.80;1.00;;;;;;5048153;28;20203;-65
2023/01/24 09:38:53;;;;;;;7.03;5.40;;;2.80;1.00;;;;;;5051042;28;20302;-66
2023/01/24 09:42:03;;;;;;;6.43;5.70;;;2.80;1.00;;;;;;5053368;28;20789;-66
2023/01/24 09:45:00;;;;;;;6.83;5.70;;;2.90;1.00;;;;;;5048520;28;20186;-65
2023/01/24 09:47:42;;;;;;;6.87;5.87;;;2.80;1.00;;;;;;5038990;28;20232;-68
2023/01/24 09:50:16;;;;;;;6.33;5.43;;;2.70;1.00;;;;;;5050601;28;20750;-66
2023/01/24 09:52:46;;;;;;;7.17;5.90;;;2.70;1.00;;;;;;5053166;28;20302;-67
2023/01/24 09:55:19;;;;;;;12.27;6.23;;;2.80;1.00;;;;;;5047450;28;20206;-68
2023/01/24 09:58:04;;;;;;;7.13;5.67;;;2.80;1.00;;;;;;5046773;28;20279;-67
2023/01/24 10:00:35;;;;;;;9.20;5.73;;;2.80;1.00;;;;;;5054487;28;20290;-67
2023/01/24 10:03:09;;;;;;;6.80;5.47;;;2.70;1.00;;;;;;5043026;28;20242;-66
2023/01/24 10:05:43;;;;;;;6.50;5.33;;;2.70;1.00;;;;;;5053967;28;20726;-67
2023/01/24 10:08:57;;;;;;;6.83;5.67;;;2.70;1.00;;;;;;5054575;28;20300;-65
2023/01/24 10:11:47;;;;;;;6.37;5.10;;;2.70;1.00;;;;;;5037582;28;20289;-67
2023/01/24 10:14:36;;;;;;;6.90;5.47;;;2.70;1.00;;;;;;5052910;28;20211;-65
2023/01/24 10:17:24;;;;;;;7.03;5.70;;;2.70;1.00;;;;;;5035618;28;20207;-66
2023/01/24 10:20:10;;;;;;;6.03;5.10;;;2.80;1.00;;;;;;5055478;28;20199;-67
2023/01/24 10:23:16;;;;;;;7.23;6.07;;;2.70;1.00;;;;;;5050133;28;20290;-65
2023/01/24 10:26:16;;;;;;;7.17;5.97;;;2.70;1.00;;;;;;5053245;28;20199;-65
2023/01/24 10:28:52;;;;;;;8.33;6.67;;;2.80;1.00;;;;;;5051407;28;20707;-65
2023/01/24 10:31:38;;;;;;;7.37;6.50;;;2.90;1.00;;;;;;5025065;28;20222;-65
2023/01/24 10:34:37;;;;;;;19.40;7.47;;;2.90;1.00;;;;;;5035868;28;20211;-65
2023/01/24 10:37:28;;;;;;;7.20;6.50;;;2.90;1.00;;;;;;5050920;28;20281;-66
2023/01/24 10:39:56;;;;;;;10.63;7.33;;;2.90;1.00;;;;;;5046723;28;20210;-62
2023/01/24 10:42:27;;;;;;;8.20;7.30;;;2.90;1.00;;;;;;5033940;28;21030;-65
2023/01/24 10:44:59;;;;;;;8.13;7.17;;;3.00;1.00;;;;;;5049364;28;20253;-69
2023/01/24 10:47:46;;;;;;;8.43;7.30;;;3.00;1.00;;;;;;5039911;28;20199;-63
2023/01/24 10:50:15;;;;;;;8.93;7.90;;;3.00;1.00;;;;;;5047044;28;20202;-69
2023/01/24 10:52:43;;;;;;;9.50;7.70;;;3.00;1.00;;;;;;5058902;28;20663;-68
2023/01/24 10:55:30;;;;;;;8.63;7.73;;;3.10;1.00;;;;;;5049137;28;20271;-66
2023/01/24 10:57:57;;;;;;;8.20;7.30;;;3.10;1.00;;;;;;5048451;28;20253;-60
2023/01/24 11:00:30;;;;;;;9.27;7.90;;;2.90;1.00;;;;;;5049110;28;20213;-58
2023/01/24 11:03:16;;;;;;;8.87;7.50;;;2.90;1.00;;;;;;5048713;28;20223;-58
2023/01/24 11:05:49;;;;;;;8.13;7.33;;;2.90;1.00;;;;;;5047790;28;20198;-60
2023/01/24 11:08:18;;;;;;;8.60;7.70;;;3.00;1.00;;;;;;5047503;28;20191;-61
2023/01/24 11:10:45;;;;;;;9.60;7.97;;;3.10;1.00;;;;;;5047246;28;20206;-59
2023/01/24 11:13:36;;;;;;;8.03;7.23;;;3.00;1.00;;;;;;5048555;28;20658;-65
2023/01/24 11:16:15;;;;;;;9.70;8.57;;;2.90;1.00;;;;;;5046187;28;20662;-64
2023/01/24 11:18:59;;;;;;;10.13;8.53;;;2.90;1.00;;;;;;5038149;28;20785;-64
2023/01/24 11:21:28;;;;;;;9.70;8.30;;;3.00;1.00;;;;;;5034865;28;20200;-66
2023/01/24 11:24:16;;;;;;;11.33;9.23;;;2.90;1.00;;;;;;5059098;28;20215;-63
2023/01/24 11:26:57;;;;;;;10.07;8.63;;;2.90;1.00;;;;;;5038977;28;20213;-63
2023/01/24 11:29:24;;;;;;;9.60;8.10;;;3.00;1.00;;;;;;5049759;28;20290;-59
2023/01/24 11:31:55;;;;;;;8.83;7.93;;;3.00;1.00;;;;;;5016525;28;20556;-60
2023/01/24 11:34:28;;;;;;;9.10;8.20;;;3.00;1.00;;;;;;5051569;28;20207;-59
2023/01/24 11:37:05;;;;;;;11.53;8.83;;;2.90;1.00;;;;;;5051045;28;20195;-67
2023/01/24 11:40:09;;;;;;;9.23;8.13;;;3.00;1.00;;;;;;5055171;28;20623;-67
2023/01/24 11:42:46;;;;;;;9.53;8.53;;;3.00;1.00;;;;;;5036682;28;20243;-68
2023/01/24 11:45:24;;;;;;;8.97;8.00;;;3.00;1.00;;;;;;5051035;28;20198;-62
2023/01/24 11:48:10;;;;;;;12.77;8.20;;;2.90;1.00;;;;;;5052439;28;20669;-60
2023/01/24 11:50:50;;;;;;;9.47;8.23;;;2.90;1.00;;;;;;5048078;28;20552;-60
2023/01/24 11:53:20;;;;;;;12.97;8.93;;;2.90;1.00;;;;;;5052468;28;20199;-59
2023/01/24 11:56:01;;;;;;;10.53;9.03;;;2.90;1.00;;;;;;5051898;28;20202;-60
2023/01/24 11:58:47;;;;;;;9.90;8.77;;;2.90;1.00;;;;;;5049846;28;20199;-60
2023/01/24 12:02:00;;;;;;;9.57;8.63;;;3.00;1.00;;;;;;5051248;28;20244;-58
2023/01/24 12:04:42;;;;;;;8.50;7.60;;;3.10;1.00;;;;;;5052451;28;20277;-60
2023/01/24 12:07:43;;;;;;;9.07;8.03;;;3.20;1.00;;;;;;5048693;28;20640;-61
2023/01/24 12:10:44;;;;;;;9.23;8.27;;;3.30;1.00;;;;;;5049421;28;20678;-60
2023/01/24 12:13:33;;;;;;;9.43;8.43;;;3.30;1.00;;;;;;5054787;28;20225;-59
2023/01/24 12:16:14;;;;;;;9.30;8.30;;;3.30;1.00;;;;;;5056292;28;20191;-58
2023/01/24 12:19:22;;;;;;;8.53;7.63;;;3.30;1.00;;;;;;5054138;28;20187;-61
2023/01/24 12:21:55;;;;;;;8.70;7.80;;;3.20;1.00;;;;;;5054288;28;20195;-60
2023/01/24 12:24:27;;;;;;;8.70;7.57;;;3.10;1.00;;;;;;5054874;28;20191;-62
2023/01/24 12:26:58;;;;;;;9.70;7.60;;;3.20;1.00;;;;;;5055341;28;20566;-59
2023/01/24 12:30:01;;;;;;;8.33;7.50;;;3.20;1.00;;;;;;5037254;28;20210;-61
2023/01/24 12:32:59;;;;;;;9.10;8.10;;;3.10;1.00;;;;;;4973574;28;20208;-59
2023/01/24 12:35:33;;;;;;;10.33;8.27;;;3.10;1.00;;;;;;5054221;28;20651;-60
2023/01/24 12:38:34;;;;;;;9.37;8.30;;;3.20;1.00;;;;;;5054150;28;20409;-58
2023/01/24 12:41:33;;;;;;;9.97;8.07;;;3.20;1.00;;;;;;5054744;28;20673;-67
2023/01/24 12:44:28;;;;;;;9.87;8.83;;;3.20;1.00;;;;;;5055628;28;20219;-67
2023/01/24 12:47:13;;;;;;;10.77;8.97;;;3.30;1.00;;;;;;5056390;28;20385;-65
2023/01/24 12:50:11;;;;;;;10.83;8.30;;;3.40;1.00;;;;;;5054979;28;20187;-67
2023/01/24 12:52:46;;;;;;;9.43;8.17;;;3.30;1.00;;;;;;5047535;28;20203;-67
2023/01/24 12:55:33;;;;;;;9.80;7.83;;;3.20;1.00;;;;;;5035812;28;20339;-63
2023/01/24 12:58:00;;;;;;;8.73;7.57;;;3.20;1.00;;;;;;5056946;28;20210;-67
2023/01/24 13:00:40;;;;;;;9.33;7.63;;;3.30;1.00;;;;;;5053423;28;20269;-65
2023/01/24 13:03:26;;;;;;;8.80;7.60;;;3.20;1.00;;;;;;5057477;28;20202;-67
2023/01/24 13:06:09;;;;;;;8.30;7.40;;;3.10;1.00;;;;;;5070443;28;20209;-65
2023/01/24 13:09:01;;;;;;;9.07;7.97;;;3.00;1.00;;;;;;5057707;28;20281;-67
2023/01/24 13:11:30;;;;;;;8.97;7.47;;;3.00;1.00;;;;;;5040922;28;20211;-65
2023/01/24 13:14:21;;;;;;;11.93;7.60;;;3.00;1.00;;;;;;5047809;28;20195;-67
2023/01/24 13:17:03;;;;;;;9.20;8.20;;;3.00;1.00;;;;;;5068651;28;20204;-65
2023/01/24 13:19:30;;;;;;;10.73;7.90;;;3.00;1.00;;;;;;5055248;28;20257;-66
2023/01/24 13:22:28;;;;;;;9.53;8.03;;;2.90;1.00;;;;;;5048381;28;20227;-64
2023/01/24 13:25:31;;;;;;;8.97;8.03;;;2.90;1.00;;;;;;5056810;28;20195;-65
2023/01/24 13:28:12;;;;;;;9.80;8.00;;;3.00;1.00;;;;;;5054301;28;20263;-67
2023/01/24 13:30:41;;;;;;;11.33;8.13;;;3.00;1.00;;;;;;5038387;28;20226;-65
2023/01/24 13:33:38;;;;;;;11.03;8.23;;;3.20;1.00;;;;;;5035684;28;20223;-66
2023/01/24 13:36:07;;;;;;;9.53;7.93;;;3.30;1.00;;;;;;5051160;28;20717;-67
2023/01/24 13:38:42;;;;;;;9.63;8.07;;;3.40;1.00;;;;;;5056106;28;20845;-65
2023/01/24 13:41:29;;;;;;;9.40;7.77;;;3.30;1.00;;;;;;5045464;28;20194;-67
2023/01/24 13:44:00;;;;;;;8.40;7.37;;;3.30;1.00;;;;;;5053505;28;20702;-67
2023/01/24 13:46:45;;;;;;;8.57;7.70;;;3.30;1.00;;;;;;5058113;28;20203;-65
2023/01/24 13:49:31;;;;;;;8.50;7.17;;;3.20;1.00;;;;;;5049766;28;20215;-64
2023/01/24 13:52:00;;;;;;;12.47;7.60;;;3.30;1.00;;;;;;5049682;28;20200;-65
2023/01/24 13:54:36;;;;;;;8.23;7.43;;;3.30;1.00;;;;;;5069014;28;20294;-65
2023/01/24 13:57:12;;;;;;;9.53;8.27;;;3.40;1.00;;;;;;5020280;28;20204;-65
2023/01/24 13:59:42;;;;;;;9.63;7.37;;;3.40;1.00;;;;;;5048785;28;20292;-65
2023/01/24 14:02:31;;;;;;;10.70;8.50;;;3.10;1.00;;;;;;5047637;28;20655;-65
2023/01/24 14:04:58;;;;;;;9.07;7.67;;;3.00;1.00;;;;;;5068288;28;20276;-66
2023/01/24 14:07:30;;;;;;;9.20;7.47;;;2.90;1.00;;;;;;5051723;28;20294;-66
2023/01/24 14:10:03;;;;;;;9.10;7.37;;;2.80;1.00;;;;;;5054782;28;20661;-67
2023/01/24 14:12:37;;;;;;;8.80;7.70;;;2.80;1.00;;;;;;5050142;28;20226;-67